sensor_id;sensor_type;location;lat;lon;timestamp;temperature;humidity
27803;DHT22;15182;48.174;11.562;2022-10-03T00:04:26;16.60;99.90
27803;DHT22;15182;48.174;11.562;2022-10-03T00:07:09;16.60;99.90
27803;DHT22;15182;48.174;11.562;2022-10-03T00:09:55;16.60;99.90
27803;DHT22;15182;48.174;11.562;2022-10-03T00:12:45;16.50;99.90
27803;DHT22;15182;48.174;11.562;2022-10-03T00:15:26;16.50;99.90
27803;DHT22;15182;48.174;11.562;2022-10-03T00:18:05;16.50;99.90
27803;DHT22;15182;48.174;11.562;2022-10-03T00:20:47;16.40;99.90
27803;DHT22;15182;48.174;11.562;2022-10-03T00:23:35;16.40;99.90
27803;DHT22;15182;48.174;11.562;2022-10-03T00:26:14;16.40;99.90
27803;DHT22;15182;48.174;11.562;2022-10-03T00:32:25;16.40;99.90
27803;DHT22;15182;48.174;11.562;2022-10-03T00:35:09;16.40;99.90
27803;DHT22;15182;48.174;11.562;2022-10-03T00:38:02;16.30;99.90
27803;DHT22;15182;48.174;11.562;2022-10-03T00:50:43;16.20;99.90
27803;DHT22;15182;48.174;11.562;2022-10-03T00:53:26;16.20;99.90
27803;DHT22;15182;48.174;11.562;2022-10-03T00:56:11;16.20;99.90
27803;DHT22;15182;48.174;11.562;2022-10-03T00:59:03;16.10;99.90
27803;DHT22;15182;48.174;11.562;2022-10-03T01:01:45;16.20;99.90
27803;DHT22;15182;48.174;11.562;2022-10-03T01:04:37;16.10;99.90
27803;DHT22;15182;48.174;11.562;2022-10-03T01:07:24;16.10;99.90
27803;DHT22;15182;48.174;11.562;2022-10-03T01:10:04;16.10;99.90
27803;DHT22;15182;48.174;11.562;2022-10-03T01:12:48;16.10;99.90
27803;DHT22;15182;48.174;11.562;2022-10-03T01:15:33;16.10;99.90
27803;DHT22;15182;48.174;11.562;2022-10-03T01:18:15;16.00;99.90
27803;DHT22;15182;48.174;11.562;2022-10-03T01:20:57;16.00;99.90
27803;DHT22;15182;48.174;11.562;2022-10-03T01:26:55;16.00;99.90
27803;DHT22;15182;48.174;11.562;2022-10-03T01:29:43;16.00;99.90
27803;DHT22;15182;48.174;11.562;2022-10-03T01:32:39;15.90;99.90
27803;DHT22;15182;48.174;11.562;2022-10-03T01:35:18;15.90;99.90
27803;DHT22;15182;48.174;11.562;2022-10-03T01:37:57;15.90;99.90
27803;DHT22;15182;48.174;11.562;2022-10-03T01:40:36;15.80;99.90
27803;DHT22;15182;48.174;11.562;2022-10-03T01:43:14;15.80;99.90
27803;DHT22;15182;48.174;11.562;2022-10-03T01:45:57;15.80;99.90
27803;DHT22;15182;48.174;11.562;2022-10-03T01:48:36;15.70;99.90
27803;DHT22;15182;48.174;11.562;2022-10-03T01:51:15;15.70;99.90
27803;DHT22;15182;48.174;11.562;2022-10-03T01:53:59;15.70;99.90
27803;DHT22;15182;48.174;11.562;2022-10-03T01:56:45;15.70;99.90
27803;DHT22;15182;48.174;11.562;2022-10-03T01:59:27;15.70;99.90
27803;DHT22;15182;48.174;11.562;2022-10-03T02:02:03;15.70;99.90
27803;DHT22;15182;48.174;11.562;2022-10-03T02:04:44;15.70;99.90
27803;DHT22;15182;48.174;11.562;2022-10-03T02:07:21;15.70;99.90
27803;DHT22;15182;48.174;11.562;2022-10-03T02:10:03;15.70;99.90
27803;DHT22;15182;48.174;11.562;2022-10-03T02:12:40;15.70;99.90
27803;DHT22;15182;48.174;11.562;2022-10-03T02:15:20;15.70;99.90
27803;DHT22;15182;48.174;11.562;2022-10-03T02:18:00;15.70;99.90
27803;DHT22;15182;48.174;11.562;2022-10-03T02:20:44;15.70;99.90
27803;DHT22;15182;48.174;11.562;2022-10-03T02:23:24;15.70;99.90
27803;DHT22;15182;48.174;11.562;2022-10-03T02:26:27;15.70;99.90
27803;DHT22;15182;48.174;11.562;2022-10-03T02:29:50;15.70;99.90
27803;DHT22;15182;48.174;11.562;2022-10-03T02:32:56;15.60;99.90
27803;DHT22;15182;48.174;11.562;2022-10-03T02:35:55;15.60;99.90
27803;DHT22;15182;48.174;11.562;2022-10-03T02:38:57;15.60;99.90
27803;DHT22;15182;48.174;11.562;2022-10-03T02:42:21;15.60;99.90
27803;DHT22;15182;48.174;11.562;2022-10-03T02:45:28;15.60;99.90
27803;DHT22;15182;48.174;11.562;2022-10-03T02:48:35;15.50;99.90
27803;DHT22;15182;48.174;11.562;2022-10-03T02:54:52;15.50;99.90
27803;DHT22;15182;48.174;11.562;2022-10-03T03:00:38;15.40;99.90
27803;DHT22;15182;48.174;11.562;2022-10-03T03:03:46;15.40;99.90
27803;DHT22;15182;48.174;11.562;2022-10-03T03:06:56;15.40;99.90
27803;DHT22;15182;48.174;11.562;2022-10-03T03:09:52;15.40;99.90
27803;DHT22;15182;48.174;11.562;2022-10-03T03:12:48;15.40;99.90
27803;DHT22;15182;48.174;11.562;2022-10-03T03:16:14;15.40;99.90
27803;DHT22;15182;48.174;11.562;2022-10-03T03:19:40;15.40;99.90
27803;DHT22;15182;48.174;11.562;2022-10-03T03:22:34;15.30;99.90
27803;DHT22;15182;48.174;11.562;2022-10-03T03:25:25;15.30;99.90
27803;DHT22;15182;48.174;11.562;2022-10-03T03:28:18;15.30;99.90
27803;DHT22;15182;48.174;11.562;2022-10-03T03:31:00;15.30;99.90
27803;DHT22;15182;48.174;11.562;2022-10-03T03:33:43;15.30;99.90
27803;DHT22;15182;48.174;11.562;2022-10-03T03:36:26;15.30;99.90
27803;DHT22;15182;48.174;11.562;2022-10-03T03:39:09;15.20;99.90
27803;DHT22;15182;48.174;11.562;2022-10-03T03:41:55;15.20;99.90
27803;DHT22;15182;48.174;11.562;2022-10-03T03:44:56;15.20;99.90
27803;DHT22;15182;48.174;11.562;2022-10-03T03:47:58;15.20;99.90
27803;DHT22;15182;48.174;11.562;2022-10-03T03:50:49;15.20;99.90
27803;DHT22;15182;48.174;11.562;2022-10-03T03:53:54;15.10;99.90
27803;DHT22;15182;48.174;11.562;2022-10-03T03:59:56;15.10;99.90
27803;DHT22;15182;48.174;11.562;2022-10-03T04:02:49;15.10;99.90
27803;DHT22;15182;48.174;11.562;2022-10-03T04:05:45;15.00;99.90
27803;DHT22;15182;48.174;11.562;2022-10-03T04:08:40;15.00;99.90
27803;DHT22;15182;48.174;11.562;2022-10-03T04:11:39;15.00;99.90
27803;DHT22;15182;48.174;11.562;2022-10-03T04:14:51;15.00;99.90
27803;DHT22;15182;48.174;11.562;2022-10-03T04:18:13;15.00;99.90
27803;DHT22;15182;48.174;11.562;2022-10-03T04:21:31;14.90;99.90
27803;DHT22;15182;48.174;11.562;2022-10-03T04:27:28;14.90;99.90
27803;DHT22;15182;48.174;11.562;2022-10-03T04:30:10;14.80;99.90
27803;DHT22;15182;48.174;11.562;2022-10-03T04:33:04;14.80;99.90
27803;DHT22;15182;48.174;11.562;2022-10-03T04:36:21;14.80;99.90
27803;DHT22;15182;48.174;11.562;2022-10-03T04:39:08;14.80;99.90
27803;DHT22;15182;48.174;11.562;2022-10-03T04:41:52;14.80;99.90
27803;DHT22;15182;48.174;11.562;2022-10-03T04:44:33;14.80;99.90
27803;DHT22;15182;48.174;11.562;2022-10-03T04:47:13;14.80;99.90
27803;DHT22;15182;48.174;11.562;2022-10-03T04:49:54;14.80;99.90
27803;DHT22;15182;48.174;11.562;2022-10-03T04:52:33;14.80;99.90
27803;DHT22;15182;48.174;11.562;2022-10-03T04:55:18;14.80;99.90
27803;DHT22;15182;48.174;11.562;2022-10-03T04:58:13;14.80;99.90
27803;DHT22;15182;48.174;11.562;2022-10-03T05:00:51;14.80;99.90
27803;DHT22;15182;48.174;11.562;2022-10-03T05:03:36;14.80;99.90
27803;DHT22;15182;48.174;11.562;2022-10-03T05:06:26;14.80;99.90
27803;DHT22;15182;48.174;11.562;2022-10-03T05:09:11;14.80;99.90
27803;DHT22;15182;48.174;11.562;2022-10-03T05:11:55;14.80;99.90
27803;DHT22;15182;48.174;11.562;2022-10-03T05:14:57;14.80;99.90
27803;DHT22;15182;48.174;11.562;2022-10-03T05:17:40;14.80;99.90
27803;DHT22;15182;48.174;11.562;2022-10-03T05:20:34;14.70;99.90
27803;DHT22;15182;48.174;11.562;2022-10-03T05:23:18;14.70;99.90
27803;DHT22;15182;48.174;11.562;2022-10-03T05:26:03;14.70;99.90
27803;DHT22;15182;48.174;11.562;2022-10-03T05:28:39;14.70;99.90
27803;DHT22;15182;48.174;11.562;2022-10-03T05:31:24;14.70;99.90
27803;DHT22;15182;48.174;11.562;2022-10-03T05:34:02;14.70;99.90
27803;DHT22;15182;48.174;11.562;2022-10-03T05:36:50;14.70;99.90
27803;DHT22;15182;48.174;11.562;2022-10-03T05:39:27;14.70;99.90
27803;DHT22;15182;48.174;11.562;2022-10-03T05:42:13;14.70;99.90
27803;DHT22;15182;48.174;11.562;2022-10-03T05:44:59;14.70;99.90
27803;DHT22;15182;48.174;11.562;2022-10-03T05:47:38;14.70;99.90
27803;DHT22;15182;48.174;11.562;2022-10-03T05:50:39;14.70;99.90
27803;DHT22;15182;48.174;11.562;2022-10-03T05:56:51;14.60;99.90
27803;DHT22;15182;48.174;11.562;2022-10-03T05:59:52;14.60;99.90
27803;DHT22;15182;48.174;11.562;2022-10-03T06:02:50;14.60;99.90
27803;DHT22;15182;48.174;11.562;2022-10-03T06:05:52;14.60;99.90
27803;DHT22;15182;48.174;11.562;2022-10-03T06:08:54;14.60;99.90
27803;DHT22;15182;48.174;11.562;2022-10-03T06:12:01;14.60;99.90
27803;DHT22;15182;48.174;11.562;2022-10-03T06:14:41;14.60;99.90
27803;DHT22;15182;48.174;11.562;2022-10-03T06:17:44;14.60;99.90
27803;DHT22;15182;48.174;11.562;2022-10-03T06:20:48;14.60;99.90
27803;DHT22;15182;48.174;11.562;2022-10-03T06:23:56;14.60;99.90
27803;DHT22;15182;48.174;11.562;2022-10-03T06:26:59;14.60;99.90
27803;DHT22;15182;48.174;11.562;2022-10-03T06:30:19;14.60;99.90
27803;DHT22;15182;48.174;11.562;2022-10-03T06:36:23;14.50;99.90
27803;DHT22;15182;48.174;11.562;2022-10-03T06:49:32;14.50;99.90
27803;DHT22;15182;48.174;11.562;2022-10-03T06:52:43;14.60;99.90
27803;DHT22;15182;48.174;11.562;2022-10-03T06:55:45;14.60;99.90
27803;DHT22;15182;48.174;11.562;2022-10-03T06:58:55;14.60;99.90
27803;DHT22;15182;48.174;11.562;2022-10-03T07:01:53;14.70;99.90
27803;DHT22;15182;48.174;11.562;2022-10-03T07:08:33;14.70;99.90
27803;DHT22;15182;48.174;11.562;2022-10-03T07:18:39;14.80;99.90
27803;DHT22;15182;48.174;11.562;2022-10-03T07:21:56;14.80;99.90
27803;DHT22;15182;48.174;11.562;2022-10-03T07:25:09;14.80;99.90
27803;DHT22;15182;48.174;11.562;2022-10-03T07:28:22;14.90;99.90
27803;DHT22;15182;48.174;11.562;2022-10-03T07:31:13;14.90;99.90
27803;DHT22;15182;48.174;11.562;2022-10-03T07:34:17;14.90;99.90
27803;DHT22;15182;48.174;11.562;2022-10-03T07:37:35;14.90;99.90
27803;DHT22;15182;48.174;11.562;2022-10-03T07:40:58;14.90;99.90
27803;DHT22;15182;48.174;11.562;2022-10-03T07:44:02;14.90;99.90
27803;DHT22;15182;48.174;11.562;2022-10-03T07:53:40;15.00;99.90
27803;DHT22;15182;48.174;11.562;2022-10-03T07:56:57;15.00;99.90
27803;DHT22;15182;48.174;11.562;2022-10-03T08:00:14;15.00;99.90
27803;DHT22;15182;48.174;11.562;2022-10-03T08:03:39;15.10;99.90
27803;DHT22;15182;48.174;11.562;2022-10-03T08:06:21;15.10;99.90
27803;DHT22;15182;48.174;11.562;2022-10-03T08:09:20;15.10;99.90
27803;DHT22;15182;48.174;11.562;2022-10-03T08:15:54;15.00;99.90
27803;DHT22;15182;48.174;11.562;2022-10-03T08:18:51;15.00;99.90
27803;DHT22;15182;48.174;11.562;2022-10-03T08:21:49;15.00;99.90
27803;DHT22;15182;48.174;11.562;2022-10-03T08:24:49;15.10;99.90
27803;DHT22;15182;48.174;11.562;2022-10-03T08:27:35;15.10;99.90
27803;DHT22;15182;48.174;11.562;2022-10-03T08:30:22;15.10;99.90
27803;DHT22;15182;48.174;11.562;2022-10-03T08:36:45;15.10;99.90
27803;DHT22;15182;48.174;11.562;2022-10-03T08:39:52;15.10;99.90
27803;DHT22;15182;48.174;11.562;2022-10-03T08:42:58;15.10;99.90
27803;DHT22;15182;48.174;11.562;2022-10-03T08:45:50;15.10;99.90
27803;DHT22;15182;48.174;11.562;2022-10-03T08:48:50;15.20;99.90
27803;DHT22;15182;48.174;11.562;2022-10-03T08:54:51;15.20;99.90
27803;DHT22;15182;48.174;11.562;2022-10-03T08:57:53;15.20;99.90
27803;DHT22;15182;48.174;11.562;2022-10-03T09:00:46;15.30;99.90
27803;DHT22;15182;48.174;11.562;2022-10-03T09:07:21;15.40;99.90
27803;DHT22;15182;48.174;11.562;2022-10-03T09:16:44;15.50;99.90
27803;DHT22;15182;48.174;11.562;2022-10-03T09:19:52;15.50;99.90
27803;DHT22;15182;48.174;11.562;2022-10-03T09:22:57;15.60;99.90
27803;DHT22;15182;48.174;11.562;2022-10-03T09:25:40;15.60;99.90
27803;DHT22;15182;48.174;11.562;2022-10-03T09:28:41;15.70;99.90
27803;DHT22;15182;48.174;11.562;2022-10-03T09:31:54;15.80;99.90
27803;DHT22;15182;48.174;11.562;2022-10-03T09:41:37;15.90;99.90
27803;DHT22;15182;48.174;11.562;2022-10-03T09:44:58;15.90;99.90
27803;DHT22;15182;48.174;11.562;2022-10-03T09:48:02;16.00;99.90
27803;DHT22;15182;48.174;11.562;2022-10-03T09:51:03;16.00;99.90
27803;DHT22;15182;48.174;11.562;2022-10-03T09:54:07;16.00;99.90
27803;DHT22;15182;48.174;11.562;2022-10-03T10:00:25;16.10;99.90
27803;DHT22;15182;48.174;11.562;2022-10-03T10:06:38;16.10;99.90
27803;DHT22;15182;48.174;11.562;2022-10-03T10:12:57;16.20;99.90
27803;DHT22;15182;48.174;11.562;2022-10-03T10:19:21;16.30;99.90
27803;DHT22;15182;48.174;11.562;2022-10-03T10:25:42;16.30;99.90
27803;DHT22;15182;48.174;11.562;2022-10-03T10:28:48;16.30;99.90
27803;DHT22;15182;48.174;11.562;2022-10-03T10:39:01;16.80;99.90
27803;DHT22;15182;48.174;11.562;2022-10-03T10:45:32;17.30;99.90
27803;DHT22;15182;48.174;11.562;2022-10-03T10:48:39;17.50;99.90
27803;DHT22;15182;48.174;11.562;2022-10-03T10:51:50;17.70;99.90
27803;DHT22;15182;48.174;11.562;2022-10-03T11:01:44;18.40;99.90
27803;DHT22;15182;48.174;11.562;2022-10-03T11:11:48;18.80;99.90
27803;DHT22;15182;48.174;11.562;2022-10-03T11:15:28;18.80;99.90
27803;DHT22;15182;48.174;11.562;2022-10-03T11:18:53;18.90;99.90
27803;DHT22;15182;48.174;11.562;2022-10-03T11:22:03;19.00;99.90
27803;DHT22;15182;48.174;11.562;2022-10-03T11:32:02;19.50;99.90
27803;DHT22;15182;48.174;11.562;2022-10-03T11:35:03;19.80;99.90
27803;DHT22;15182;48.174;11.562;2022-10-03T11:37:53;20.00;99.90
27803;DHT22;15182;48.174;11.562;2022-10-03T11:40:34;20.20;99.70
27803;DHT22;15182;48.174;11.562;2022-10-03T11:43:33;20.40;99.30
27803;DHT22;15182;48.174;11.562;2022-10-03T11:46:30;20.60;98.60
27803;DHT22;15182;48.174;11.562;2022-10-03T11:49:13;20.80;98.10
27803;DHT22;15182;48.174;11.562;2022-10-03T11:52:10;20.90;97.60
27803;DHT22;15182;48.174;11.562;2022-10-03T11:54:50;21.00;97.30
27803;DHT22;15182;48.174;11.562;2022-10-03T11:57:32;21.00;97.00
27803;DHT22;15182;48.174;11.562;2022-10-03T12:00:07;21.00;97.10
27803;DHT22;15182;48.174;11.562;2022-10-03T12:02:59;20.90;96.80
27803;DHT22;15182;48.174;11.562;2022-10-03T12:05:46;21.00;96.40
27803;DHT22;15182;48.174;11.562;2022-10-03T12:08:24;21.00;96.00
27803;DHT22;15182;48.174;11.562;2022-10-03T12:11:20;21.10;96.50
27803;DHT22;15182;48.174;11.562;2022-10-03T12:14:25;21.10;96.10
27803;DHT22;15182;48.174;11.562;2022-10-03T12:17:03;21.10;95.70
27803;DHT22;15182;48.174;11.562;2022-10-03T12:19:45;21.10;95.60
27803;DHT22;15182;48.174;11.562;2022-10-03T12:22:30;21.00;95.40
27803;DHT22;15182;48.174;11.562;2022-10-03T12:25:16;20.90;95.60
27803;DHT22;15182;48.174;11.562;2022-10-03T12:27:57;20.70;95.10
27803;DHT22;15182;48.174;11.562;2022-10-03T12:30:36;20.60;95.30
27803;DHT22;15182;48.174;11.562;2022-10-03T12:33:25;20.50;95.80
27803;DHT22;15182;48.174;11.562;2022-10-03T12:36:08;20.30;94.90
27803;DHT22;15182;48.174;11.562;2022-10-03T12:38:50;20.20;95.50
27803;DHT22;15182;48.174;11.562;2022-10-03T12:41:46;20.10;95.20
27803;DHT22;15182;48.174;11.562;2022-10-03T12:44:37;20.00;95.40
27803;DHT22;15182;48.174;11.562;2022-10-03T12:47:23;19.90;95.30
27803;DHT22;15182;48.174;11.562;2022-10-03T12:49:58;19.80;95.50
27803;DHT22;15182;48.174;11.562;2022-10-03T12:52:38;19.80;95.70
27803;DHT22;15182;48.174;11.562;2022-10-03T12:55:22;19.90;95.40
27803;DHT22;15182;48.174;11.562;2022-10-03T12:58:01;20.00;95.00
27803;DHT22;15182;48.174;11.562;2022-10-03T13:00:38;20.00;95.10
27803;DHT22;15182;48.174;11.562;2022-10-03T13:03:18;20.00;95.30
27803;DHT22;15182;48.174;11.562;2022-10-03T13:06:16;20.10;94.90
27803;DHT22;15182;48.174;11.562;2022-10-03T13:08:59;20.10;94.50
27803;DHT22;15182;48.174;11.562;2022-10-03T13:11:43;20.20;95.20
27803;DHT22;15182;48.174;11.562;2022-10-03T13:14:26;20.20;94.60
27803;DHT22;15182;48.174;11.562;2022-10-03T13:17:12;20.20;94.70
27803;DHT22;15182;48.174;11.562;2022-10-03T13:19:53;20.20;94.80
27803;DHT22;15182;48.174;11.562;2022-10-03T13:22:33;20.20;94.80
27803;DHT22;15182;48.174;11.562;2022-10-03T13:25:16;20.20;95.00
27803;DHT22;15182;48.174;11.562;2022-10-03T13:27:55;20.20;95.00
27803;DHT22;15182;48.174;11.562;2022-10-03T13:30:34;20.20;95.10
27803;DHT22;15182;48.174;11.562;2022-10-03T13:33:14;20.10;95.10
27803;DHT22;15182;48.174;11.562;2022-10-03T13:35:51;20.00;95.00
27803;DHT22;15182;48.174;11.562;2022-10-03T13:38:48;20.00;95.30
27803;DHT22;15182;48.174;11.562;2022-10-03T13:41:28;19.90;95.30
27803;DHT22;15182;48.174;11.562;2022-10-03T13:44:03;19.80;95.60
27803;DHT22;15182;48.174;11.562;2022-10-03T13:46:44;19.80;95.80
27803;DHT22;15182;48.174;11.562;2022-10-03T13:49:25;19.80;95.40
27803;DHT22;15182;48.174;11.562;2022-10-03T13:52:03;19.80;95.40
27803;DHT22;15182;48.174;11.562;2022-10-03T13:55:08;19.80;95.30
27803;DHT22;15182;48.174;11.562;2022-10-03T13:57:45;19.80;95.20
27803;DHT22;15182;48.174;11.562;2022-10-03T14:00:26;19.70;95.10
27803;DHT22;15182;48.174;11.562;2022-10-03T14:03:12;19.70;95.10
27803;DHT22;15182;48.174;11.562;2022-10-03T14:06:08;19.70;94.60
27803;DHT22;15182;48.174;11.562;2022-10-03T14:08:58;19.60;94.60
27803;DHT22;15182;48.174;11.562;2022-10-03T14:12:11;19.50;94.60
27803;DHT22;15182;48.174;11.562;2022-10-03T14:17:51;19.40;94.40
27803;DHT22;15182;48.174;11.562;2022-10-03T14:20:31;19.40;94.60
27803;DHT22;15182;48.174;11.562;2022-10-03T14:23:16;19.30;94.80
27803;DHT22;15182;48.174;11.562;2022-10-03T14:25:56;19.30;94.40
27803;DHT22;15182;48.174;11.562;2022-10-03T14:28:36;19.20;94.70
27803;DHT22;15182;48.174;11.562;2022-10-03T14:31:11;19.20;94.70
27803;DHT22;15182;48.174;11.562;2022-10-03T14:33:47;19.10;94.70
27803;DHT22;15182;48.174;11.562;2022-10-03T14:36:38;19.10;95.00
27803;DHT22;15182;48.174;11.562;2022-10-03T14:39:26;19.10;94.80
27803;DHT22;15182;48.174;11.562;2022-10-03T14:42:25;19.00;94.80
27803;DHT22;15182;48.174;11.562;2022-10-03T14:45:19;19.00;94.70
27803;DHT22;15182;48.174;11.562;2022-10-03T14:47:56;18.90;94.70
27803;DHT22;15182;48.174;11.562;2022-10-03T14:50:32;18.90;94.80
27803;DHT22;15182;48.174;11.562;2022-10-03T14:53:12;18.80;95.00
27803;DHT22;15182;48.174;11.562;2022-10-03T14:55:55;18.80;94.80
27803;DHT22;15182;48.174;11.562;2022-10-03T14:58:33;18.80;95.00
27803;DHT22;15182;48.174;11.562;2022-10-03T15:01:11;18.80;95.00
27803;DHT22;15182;48.174;11.562;2022-10-03T15:03:52;18.70;95.10
27803;DHT22;15182;48.174;11.562;2022-10-03T15:06:50;18.70;94.80
27803;DHT22;15182;48.174;11.562;2022-10-03T15:09:24;18.70;94.90
27803;DHT22;15182;48.174;11.562;2022-10-03T15:12:04;18.60;95.10
27803;DHT22;15182;48.174;11.562;2022-10-03T15:14:43;18.70;94.70
27803;DHT22;15182;48.174;11.562;2022-10-03T15:17:17;18.60;95.00
27803;DHT22;15182;48.174;11.562;2022-10-03T15:19:52;18.60;95.00
27803;DHT22;15182;48.174;11.562;2022-10-03T15:22:30;18.50;94.80
27803;DHT22;15182;48.174;11.562;2022-10-03T15:25:09;18.50;94.70
27803;DHT22;15182;48.174;11.562;2022-10-03T15:27:47;18.50;94.60
27803;DHT22;15182;48.174;11.562;2022-10-03T15:30:22;18.50;94.90
27803;DHT22;15182;48.174;11.562;2022-10-03T15:33:01;18.50;94.90
27803;DHT22;15182;48.174;11.562;2022-10-03T15:35:35;18.50;94.90
27803;DHT22;15182;48.174;11.562;2022-10-03T15:38:13;18.40;95.10
27803;DHT22;15182;48.174;11.562;2022-10-03T15:40:50;18.40;95.10
27803;DHT22;15182;48.174;11.562;2022-10-03T15:43:30;18.40;95.10
27803;DHT22;15182;48.174;11.562;2022-10-03T15:46:05;18.30;95.20
27803;DHT22;15182;48.174;11.562;2022-10-03T15:48:43;18.40;95.30
27803;DHT22;15182;48.174;11.562;2022-10-03T15:51:18;18.30;95.20
27803;DHT22;15182;48.174;11.562;2022-10-03T15:53:55;18.30;95.10
27803;DHT22;15182;48.174;11.562;2022-10-03T15:56:33;18.30;95.20
27803;DHT22;15182;48.174;11.562;2022-10-03T15:59:14;18.30;95.10
27803;DHT22;15182;48.174;11.562;2022-10-03T16:01:50;18.30;95.30
27803;DHT22;15182;48.174;11.562;2022-10-03T16:04:25;18.20;95.20
27803;DHT22;15182;48.174;11.562;2022-10-03T16:07:02;18.20;95.10
27803;DHT22;15182;48.174;11.562;2022-10-03T16:09:45;18.20;95.00
27803;DHT22;15182;48.174;11.562;2022-10-03T16:12:49;18.20;94.80
27803;DHT22;15182;48.174;11.562;2022-10-03T16:15:26;18.20;95.00
27803;DHT22;15182;48.174;11.562;2022-10-03T16:18:08;18.10;95.20
27803;DHT22;15182;48.174;11.562;2022-10-03T16:21:00;18.10;95.20
27803;DHT22;15182;48.174;11.562;2022-10-03T16:23:36;18.10;95.20
27803;DHT22;15182;48.174;11.562;2022-10-03T16:26:17;18.10;95.20
27803;DHT22;15182;48.174;11.562;2022-10-03T16:28:55;18.00;95.40
27803;DHT22;15182;48.174;11.562;2022-10-03T16:31:34;18.00;95.10
27803;DHT22;15182;48.174;11.562;2022-10-03T16:34:13;18.00;95.30
27803;DHT22;15182;48.174;11.562;2022-10-03T16:36:49;18.00;95.30
27803;DHT22;15182;48.174;11.562;2022-10-03T16:39:22;18.00;95.20
27803;DHT22;15182;48.174;11.562;2022-10-03T16:41:55;17.90;95.20
27803;DHT22;15182;48.174;11.562;2022-10-03T16:44:35;17.90;95.30
27803;DHT22;15182;48.174;11.562;2022-10-03T16:47:10;17.90;95.40
27803;DHT22;15182;48.174;11.562;2022-10-03T16:49:45;17.80;95.30
27803;DHT22;15182;48.174;11.562;2022-10-03T16:52:37;17.80;95.20
27803;DHT22;15182;48.174;11.562;2022-10-03T16:55:20;17.80;95.50
27803;DHT22;15182;48.174;11.562;2022-10-03T16:57:58;17.80;95.30
27803;DHT22;15182;48.174;11.562;2022-10-03T17:00:37;17.70;95.50
27803;DHT22;15182;48.174;11.562;2022-10-03T17:03:20;17.70;95.60
27803;DHT22;15182;48.174;11.562;2022-10-03T17:05:54;17.70;95.60
27803;DHT22;15182;48.174;11.562;2022-10-03T17:08:31;17.60;95.70
27803;DHT22;15182;48.174;11.562;2022-10-03T17:11:07;17.60;95.60
27803;DHT22;15182;48.174;11.562;2022-10-03T17:13:46;17.60;95.60
27803;DHT22;15182;48.174;11.562;2022-10-03T17:16:24;17.50;95.60
27803;DHT22;15182;48.174;11.562;2022-10-03T17:19:19;17.50;95.60
27803;DHT22;15182;48.174;11.562;2022-10-03T17:21:55;17.50;95.60
27803;DHT22;15182;48.174;11.562;2022-10-03T17:24:36;17.40;95.70
27803;DHT22;15182;48.174;11.562;2022-10-03T17:27:14;17.40;95.70
27803;DHT22;15182;48.174;11.562;2022-10-03T17:29:49;17.40;95.90
27803;DHT22;15182;48.174;11.562;2022-10-03T17:32:24;17.30;95.80
27803;DHT22;15182;48.174;11.562;2022-10-03T17:35:05;17.30;95.90
27803;DHT22;15182;48.174;11.562;2022-10-03T17:37:51;17.30;95.90
27803;DHT22;15182;48.174;11.562;2022-10-03T17:40:43;17.20;96.00
27803;DHT22;15182;48.174;11.562;2022-10-03T17:43:26;17.20;95.90
27803;DHT22;15182;48.174;11.562;2022-10-03T17:46:06;17.10;96.00
27803;DHT22;15182;48.174;11.562;2022-10-03T17:48:42;17.10;96.20
27803;DHT22;15182;48.174;11.562;2022-10-03T17:51:29;17.10;96.20
27803;DHT22;15182;48.174;11.562;2022-10-03T17:54:04;17.00;96.30
27803;DHT22;15182;48.174;11.562;2022-10-03T17:56:46;17.00;96.30
27803;DHT22;15182;48.174;11.562;2022-10-03T17:59:25;17.00;96.30
27803;DHT22;15182;48.174;11.562;2022-10-03T18:02:11;16.90;96.30
27803;DHT22;15182;48.174;11.562;2022-10-03T18:04:48;16.90;96.30
27803;DHT22;15182;48.174;11.562;2022-10-03T18:07:28;16.80;96.40
27803;DHT22;15182;48.174;11.562;2022-10-03T18:10:01;16.80;96.50
27803;DHT22;15182;48.174;11.562;2022-10-03T18:12:38;16.80;96.60
27803;DHT22;15182;48.174;11.562;2022-10-03T18:18:51;16.70;96.40
27803;DHT22;15182;48.174;11.562;2022-10-03T18:21:54;16.70;96.40
27803;DHT22;15182;48.174;11.562;2022-10-03T18:24:46;16.60;96.50
27803;DHT22;15182;48.174;11.562;2022-10-03T18:30:29;16.60;96.70
27803;DHT22;15182;48.174;11.562;2022-10-03T18:33:06;16.50;96.80
27803;DHT22;15182;48.174;11.562;2022-10-03T18:35:45;16.50;96.80
27803;DHT22;15182;48.174;11.562;2022-10-03T18:38:19;16.50;96.80
27803;DHT22;15182;48.174;11.562;2022-10-03T18:40:55;16.40;96.80
27803;DHT22;15182;48.174;11.562;2022-10-03T18:43:30;16.40;96.80
27803;DHT22;15182;48.174;11.562;2022-10-03T18:46:05;16.40;96.80
27803;DHT22;15182;48.174;11.562;2022-10-03T18:48:43;16.40;96.90
27803;DHT22;15182;48.174;11.562;2022-10-03T18:51:20;16.30;96.90
27803;DHT22;15182;48.174;11.562;2022-10-03T18:53:57;16.30;97.00
27803;DHT22;15182;48.174;11.562;2022-10-03T18:56:32;16.30;97.00
27803;DHT22;15182;48.174;11.562;2022-10-03T18:59:10;16.20;97.10
27803;DHT22;15182;48.174;11.562;2022-10-03T19:01:49;16.20;97.10
27803;DHT22;15182;48.174;11.562;2022-10-03T19:04:35;16.20;97.10
27803;DHT22;15182;48.174;11.562;2022-10-03T19:07:19;16.20;97.20
27803;DHT22;15182;48.174;11.562;2022-10-03T19:10:23;16.20;97.20
27803;DHT22;15182;48.174;11.562;2022-10-03T19:13:04;16.10;97.00
27803;DHT22;15182;48.174;11.562;2022-10-03T19:16:02;16.10;97.10
27803;DHT22;15182;48.174;11.562;2022-10-03T19:18:41;16.10;97.10
27803;DHT22;15182;48.174;11.562;2022-10-03T19:21:17;16.00;97.20
27803;DHT22;15182;48.174;11.562;2022-10-03T19:23:52;16.00;97.20
27803;DHT22;15182;48.174;11.562;2022-10-03T19:26:34;16.00;97.20
27803;DHT22;15182;48.174;11.562;2022-10-03T19:29:11;16.00;97.20
27803;DHT22;15182;48.174;11.562;2022-10-03T19:31:54;16.00;97.20
27803;DHT22;15182;48.174;11.562;2022-10-03T19:34:34;16.00;97.20
27803;DHT22;15182;48.174;11.562;2022-10-03T19:37:09;15.90;97.10
27803;DHT22;15182;48.174;11.562;2022-10-03T19:39:44;15.90;97.10
27803;DHT22;15182;48.174;11.562;2022-10-03T19:42:23;15.90;97.10
27803;DHT22;15182;48.174;11.562;2022-10-03T19:45:00;15.90;97.10
27803;DHT22;15182;48.174;11.562;2022-10-03T19:47:34;15.90;97.10
27803;DHT22;15182;48.174;11.562;2022-10-03T19:50:11;15.80;97.10
27803;DHT22;15182;48.174;11.562;2022-10-03T19:52:48;15.80;97.10
27803;DHT22;15182;48.174;11.562;2022-10-03T19:55:22;15.80;97.20
27803;DHT22;15182;48.174;11.562;2022-10-03T19:58:00;15.70;97.20